PEGS11 YBTL-YBTL
Flight info
| Callsign | PEGS11 |
|---|---|
| Flight time | 0h 25m |
| Altitude | 6000 |
| Route | DCT |
| Aircraft | H47/M-SDFGRY/LB1 |
Departure
| Time | 2026-05-04 12:12 |
|---|---|
| Airport | Townsville Airport / RAAF Base Townsville (YBTL) |
Arrival
| Time | 2026-05-04 12:37 |
|---|---|
| Airport | Townsville Airport / RAAF Base Townsville (YBTL) |
| Time | Latitude | Longitude | Altitude | Speed | Heading |
|---|---|---|---|---|---|
| 2026-05-04 12:12 | -19.25259 | 146.73502 | 1088 ft | 128 kts | 283° |
| 2026-05-04 12:12 | -19.25034 | 146.72564 | 1129 ft | 134 kts | 288° |
| 2026-05-04 12:13 | -19.24828 | 146.71601 | 1253 ft | 133 kts | 279° |
| 2026-05-04 12:14 | -19.25746 | 146.64620 | 2903 ft | 149 kts | 258° |
| 2026-05-04 12:15 | -19.25940 | 146.63544 | 3222 ft | 148 kts | 260° |
| 2026-05-04 12:15 | -19.26014 | 146.62470 | 3492 ft | 143 kts | 268° |
| 2026-05-04 12:15 | -19.26054 | 146.61431 | 3830 ft | 141 kts | 268° |
| 2026-05-04 12:15 | -19.26098 | 146.60385 | 4047 ft | 149 kts | 268° |
| 2026-05-04 12:16 | -19.26178 | 146.59267 | 4070 ft | 154 kts | 262° |
| 2026-05-04 12:16 | -19.26467 | 146.58176 | 4029 ft | 154 kts | 247° |
| 2026-05-04 12:16 | -19.27015 | 146.57184 | 3869 ft | 159 kts | 233° |
| 2026-05-04 12:16 | -19.27680 | 146.56229 | 3722 ft | 162 kts | 231° |
| 2026-05-04 12:17 | -19.28319 | 146.55239 | 3574 ft | 163 kts | 237° |
| 2026-05-04 12:17 | -19.28838 | 146.54191 | 3503 ft | 158 kts | 245° |
| 2026-05-04 12:17 | -19.29271 | 146.53164 | 3662 ft | 145 kts | 242° |
| 2026-05-04 12:17 | -19.29744 | 146.52275 | 4080 ft | 139 kts | 240° |
| 2026-05-04 12:18 | -19.30024 | 146.51262 | 4332 ft | 139 kts | 252° |
| 2026-05-04 12:18 | -19.30426 | 146.50378 | 4619 ft | 133 kts | 237° |
| 2026-05-04 12:18 | -19.31002 | 146.49544 | 4533 ft | 147 kts | 229° |
| 2026-05-04 12:18 | -19.31719 | 146.48713 | 4088 ft | 161 kts | 223° |
| 2026-05-04 12:19 | -19.32541 | 146.47800 | 3863 ft | 181 kts | 226° |
| 2026-05-04 12:19 | -19.33389 | 146.46837 | 4214 ft | 175 kts | 222° |
| 2026-05-04 12:19 | -19.34505 | 146.46323 | 4402 ft | 177 kts | 195° |
| 2026-05-04 12:19 | -19.35692 | 146.46019 | 4601 ft | 173 kts | 186° |
| 2026-05-04 12:20 | -19.36767 | 146.46111 | 5202 ft | 131 kts | 169° |
| 2026-05-04 12:20 | -19.37559 | 146.46395 | 5458 ft | 116 kts | 167° |
| 2026-05-04 12:20 | -19.38401 | 146.45953 | 4366 ft | 170 kts | 222° |
| 2026-05-04 12:20 | -19.39135 | 146.44830 | 3833 ft | 189 kts | 237° |
| 2026-05-04 12:21 | -19.39757 | 146.43606 | 3772 ft | 192 kts | 242° |
| 2026-05-04 12:21 | -19.40461 | 146.42471 | 3768 ft | 174 kts | 228° |
| 2026-05-04 12:21 | -19.41301 | 146.41679 | 3996 ft | 158 kts | 215° |
| 2026-05-04 12:21 | -19.42242 | 146.41061 | 3919 ft | 150 kts | 199° |
| 2026-05-04 12:22 | -19.43087 | 146.41018 | 3219 ft | 111 kts | 153° |
| 2026-05-04 12:22 | -19.43688 | 146.41467 | 2689 ft | 110 kts | 136° |
| 2026-05-04 12:22 | -19.44190 | 146.42137 | 2526 ft | 119 kts | 123° |
| 2026-05-04 12:22 | -19.44818 | 146.42664 | 2565 ft | 120 kts | 159° |
| 2026-05-04 12:23 | -19.45544 | 146.42273 | 2364 ft | 136 kts | 243° |
| 2026-05-04 12:23 | -19.45287 | 146.41519 | 2159 ft | 101 kts | 316° |
| 2026-05-04 12:23 | -19.44910 | 146.41045 | 2119 ft | 68 kts | 296° |
| 2026-05-04 12:23 | -19.44813 | 146.40571 | 1822 ft | 62 kts | 211° |
| 2026-05-04 12:24 | -19.45148 | 146.40393 | 1572 ft | 60 kts | 184° |
| 2026-05-04 12:24 | -19.45460 | 146.40349 | 1262 ft | 14 kts | 184° |
| 2026-05-04 12:24 | -19.45500 | 146.40352 | 1138 ft | 3 kts | 184° |
| 2026-05-04 12:24 | -19.45508 | 146.40358 | 1113 ft | 0 kts | 184° |
| 2026-05-04 12:25 | -19.45509 | 146.40358 | 1107 ft | 0 kts | 184° |
| 2026-05-04 12:27 | -19.45517 | 146.40355 | 1251 ft | 1 kts | 184° |
| 2026-05-04 12:27 | -19.45546 | 146.40352 | 1641 ft | 10 kts | 186° |
| 2026-05-04 12:27 | -19.45700 | 146.40482 | 1940 ft | 53 kts | 94° |
| 2026-05-04 12:28 | -19.45451 | 146.41008 | 2348 ft | 114 kts | 36° |
| 2026-05-04 12:28 | -19.44774 | 146.41650 | 2600 ft | 142 kts | 46° |
| 2026-05-04 12:28 | -19.44035 | 146.42353 | 2851 ft | 145 kts | 46° |
| 2026-05-04 12:28 | -19.43257 | 146.43053 | 3151 ft | 146 kts | 49° |
| 2026-05-04 12:29 | -19.42477 | 146.43758 | 3311 ft | 151 kts | 47° |
| 2026-05-04 12:29 | -19.41680 | 146.44486 | 3491 ft | 152 kts | 49° |
| 2026-05-04 12:29 | -19.40864 | 146.45257 | 3492 ft | 161 kts | 49° |
| 2026-05-04 12:29 | -19.40053 | 146.46037 | 3621 ft | 155 kts | 50° |
| 2026-05-04 12:30 | -19.39243 | 146.46811 | 3719 ft | 161 kts | 49° |
| 2026-05-04 12:30 | -19.38409 | 146.47590 | 3726 ft | 155 kts | 44° |
| 2026-05-04 12:30 | -19.37685 | 146.48428 | 3718 ft | 155 kts | 51° |
| 2026-05-04 12:30 | -19.37039 | 146.49348 | 3707 ft | 154 kts | 54° |
| 2026-05-04 12:31 | -19.36476 | 146.50311 | 3712 ft | 153 kts | 60° |
| 2026-05-04 12:31 | -19.36014 | 146.51312 | 3707 ft | 150 kts | 65° |
| 2026-05-04 12:31 | -19.35604 | 146.52333 | 3713 ft | 151 kts | 67° |
| 2026-05-04 12:31 | -19.35212 | 146.53363 | 3709 ft | 151 kts | 68° |
| 2026-05-04 12:32 | -19.34820 | 146.54394 | 3701 ft | 150 kts | 68° |
| 2026-05-04 12:32 | -19.33958 | 146.56398 | 3704 ft | 150 kts | 64° |
| 2026-05-04 12:32 | -19.33507 | 146.57393 | 3698 ft | 150 kts | 64° |
| 2026-05-04 12:33 | -19.33052 | 146.58385 | 3706 ft | 149 kts | 64° |
| 2026-05-04 12:33 | -19.32600 | 146.59360 | 3696 ft | 150 kts | 64° |
| 2026-05-04 12:33 | -19.32138 | 146.60346 | 3704 ft | 148 kts | 64° |
| 2026-05-04 12:33 | -19.31674 | 146.61332 | 3697 ft | 150 kts | 64° |
| 2026-05-04 12:34 | -19.31210 | 146.62317 | 3697 ft | 150 kts | 64° |
| 2026-05-04 12:34 | -19.30739 | 146.63302 | 3707 ft | 148 kts | 63° |
| 2026-05-04 12:34 | -19.30169 | 146.64237 | 3610 ft | 156 kts | 57° |
| 2026-05-04 12:34 | -19.29543 | 146.65202 | 3381 ft | 158 kts | 56° |
| 2026-05-04 12:35 | -19.28913 | 146.66115 | 3392 ft | 150 kts | 59° |
| 2026-05-04 12:35 | -19.28306 | 146.66971 | 3460 ft | 145 kts | 61° |
| 2026-05-04 12:35 | -19.27780 | 146.67875 | 3449 ft | 144 kts | 66° |
| 2026-05-04 12:35 | -19.27355 | 146.68831 | 3095 ft | 141 kts | 71° |
| 2026-05-04 12:36 | -19.26984 | 146.69762 | 2843 ft | 136 kts | 71° |
| 2026-05-04 12:36 | -19.26606 | 146.70699 | 2389 ft | 140 kts | 71° |
| 2026-05-04 12:36 | -19.26253 | 146.71668 | 1982 ft | 143 kts | 73° |
| 2026-05-04 12:36 | -19.25952 | 146.72631 | 1487 ft | 132 kts | 78° |
| 2026-05-04 12:37 | -19.25754 | 146.73545 | 1170 ft | 123 kts | 82° |
| 2026-05-04 12:37 | -19.25654 | 146.74354 | 813 ft | 98 kts | 87° |
| 2026-05-04 12:37 | -19.25610 | 146.74958 | 565 ft | 64 kts | 90° |
| 2026-05-04 12:37 | -19.25627 | 146.75320 | 348 ft | 38 kts | 91° |
| 2026-05-04 12:38 | -19.25639 | 146.75539 | 217 ft | 20 kts | 90° |
| 2026-05-04 12:38 | -19.25637 | 146.75660 | 163 ft | 14 kts | 90° |
| 2026-05-04 12:38 | -19.25632 | 146.75741 | 148 ft | 10 kts | 89° |
| 2026-05-04 12:38 | -19.25628 | 146.75838 | 92 ft | 16 kts | 89° |
| 2026-05-04 12:39 | -19.25627 | 146.75900 | 32 ft | 4 kts | 89° |
| 2026-05-04 12:39 | -19.25631 | 146.75917 | 18 ft | 2 kts | 143° |
| 2026-05-04 12:39 | -19.25647 | 146.75925 | 17 ft | 3 kts | 167° |
| 2026-05-04 12:39 | -19.25671 | 146.75927 | 16 ft | 4 kts | 184° |
| 2026-05-04 12:40 | -19.25700 | 146.75923 | 16 ft | 4 kts | 205° |
| 2026-05-04 12:40 | -19.25732 | 146.75916 | 16 ft | 5 kts | 172° |
| 2026-05-04 12:40 | -19.25761 | 146.75921 | 17 ft | 1 kts | 168° |
| 2026-05-04 12:40 | -19.25773 | 146.75934 | 17 ft | 1 kts | 85° |
| 2026-05-04 12:41 | -19.25772 | 146.75940 | 17 ft | 0 kts | 95° |